createdAt,value
2023-04-06T00:00:36.468Z,98443.88
2023-04-06T00:03:39.437Z,98448.41
2023-04-06T00:06:42.367Z,98442.88
2023-04-06T00:09:45.823Z,98440.81
2023-04-06T00:12:48.594Z,98437.16
2023-04-06T00:15:52.735Z,98441.06
2023-04-06T00:18:55.464Z,98435.31
2023-04-06T00:21:58.398Z,98430.66
2023-04-06T00:25:01.290Z,98428.53
2023-04-06T00:28:04.496Z,98426.91
2023-04-06T00:31:08.643Z,98428.53
2023-04-06T00:34:11.884Z,98430.38
2023-04-06T00:37:14.657Z,98432.81
2023-04-06T00:40:17.858Z,98424.63
2023-04-06T00:43:20.648Z,98421.16
2023-04-06T00:46:25.145Z,98419.38
2023-04-06T00:49:28.286Z,98418.22
2023-04-06T00:52:31.190Z,98420.66
2023-04-06T00:55:33.872Z,98416.00
2023-04-06T00:58:38.913Z,98417.63
2023-04-06T01:01:43.029Z,98407.25
2023-04-06T01:04:46.090Z,98414.38
2023-04-06T01:07:48.829Z,98414.97
2023-04-06T01:10:51.573Z,98410.06
2023-04-06T01:13:54.881Z,98413.22
2023-04-06T01:17:00.252Z,98401.22
2023-04-06T01:20:02.974Z,98406.56
2023-04-06T01:23:07.134Z,98405.69
2023-04-06T01:26:09.840Z,98409.97
2023-04-06T01:29:12.654Z,98404.22
2023-04-06T01:32:15.577Z,98401.22
2023-04-06T01:35:19.850Z,98403.13
2023-04-06T01:38:24.017Z,98400.34
2023-04-06T01:41:27.145Z,98396.16
2023-04-06T01:44:31.259Z,98390.13
2023-04-06T01:47:34.077Z,98389.31
2023-04-06T01:50:37.188Z,98379.75
2023-04-06T01:53:41.711Z,98389.47
2023-04-06T01:56:44.426Z,98388.28
2023-04-06T01:59:47.148Z,98378.34
2023-04-06T02:02:49.951Z,98378.97
2023-04-06T02:05:52.655Z,98387.38
2023-04-06T02:08:56.761Z,98384.94
2023-04-06T02:11:59.535Z,98387.22
2023-04-06T02:15:02.286Z,98375.38
2023-04-06T02:18:05.238Z,98386.63
2023-04-06T02:21:08.012Z,98374.59
2023-04-06T02:24:12.084Z,98384.34
2023-04-06T02:27:15.994Z,98383.56
2023-04-06T02:30:18.811Z,98377.75
2023-04-06T02:33:21.550Z,98380.19
2023-04-06T02:36:24.273Z,98381.00
2023-04-06T02:39:28.382Z,98377.16
2023-04-06T02:42:31.282Z,98370.47
2023-04-06T02:45:34.070Z,98378.84
2023-04-06T02:48:38.218Z,98373.59
2023-04-06T02:51:41.328Z,98371.56
2023-04-06T02:54:45.482Z,98371.78
2023-04-06T02:57:48.253Z,98373.91
2023-04-06T03:00:50.973Z,98372.41
2023-04-06T03:03:53.880Z,98378.03
2023-04-06T03:06:57.871Z,98373.31
2023-04-06T03:10:03.563Z,98377.00
2023-04-06T03:13:06.279Z,98372.59
2023-04-06T03:16:09.184Z,98364.84
2023-04-06T03:19:11.992Z,98363.72
2023-04-06T03:22:14.800Z,98362.88
2023-04-06T03:25:18.895Z,98362.28
2023-04-06T03:28:21.685Z,98371.88
2023-04-06T03:31:24.661Z,98364.56
2023-04-06T03:34:27.365Z,98366.81
2023-04-06T03:37:30.280Z,98366.22
2023-04-06T03:40:34.370Z,98375.34
2023-04-06T03:43:37.441Z,98363.00
2023-04-06T03:46:40.525Z,98371.53
2023-04-06T03:49:43.257Z,98371.16
2023-04-06T03:52:46.007Z,98377.50
2023-04-06T03:55:50.244Z,98382.78
2023-04-06T03:58:53.036Z,98386.06
2023-04-06T04:01:55.783Z,98385.06
2023-04-06T04:04:58.474Z,98385.66
2023-04-06T04:08:01.299Z,98393.16
2023-04-06T04:11:05.517Z,98384.84
2023-04-06T04:14:08.251Z,98388.50
2023-04-06T04:17:11.001Z,98392.81
2023-04-06T04:20:13.871Z,98391.59
2023-04-06T04:23:16.581Z,98399.56
2023-04-06T04:26:20.938Z,98402.03
2023-04-06T04:29:23.709Z,98390.22
2023-04-06T04:32:28.245Z,98397.56
2023-04-06T04:35:31.054Z,98401.03
2023-04-06T04:38:33.799Z,98394.53
2023-04-06T04:41:38.114Z,98397.78
2023-04-06T04:44:40.994Z,98393.31
2023-04-06T04:47:43.740Z,98401.88
2023-04-06T04:50:46.683Z,98395.38
2023-04-06T04:53:49.488Z,98402.31
2023-04-06T04:56:53.603Z,98399.66
2023-04-06T04:59:57.952Z,98397.22
2023-04-06T05:03:01.022Z,98398.44
2023-04-06T05:06:04.186Z,98399.44
2023-04-06T05:09:07.037Z,98404.50
2023-04-06T05:12:11.181Z,98402.88
2023-04-06T05:15:14.000Z,98412.59
2023-04-06T05:18:17.177Z,98403.44
2023-04-06T05:21:21.312Z,98410.53
2023-04-06T05:24:24.094Z,98412.75
2023-04-06T05:27:28.203Z,98418.16
2023-04-06T05:30:31.100Z,98418.78
2023-04-06T05:33:34.382Z,98416.94
2023-04-06T05:36:37.099Z,98419.94
2023-04-06T05:39:39.913Z,98431.66
2023-04-06T05:42:44.996Z,98428.38
2023-04-06T05:45:47.693Z,98429.19
2023-04-06T05:48:50.366Z,98432.00
2023-04-06T05:51:53.177Z,98426.28
2023-04-06T05:54:56.154Z,98424.63
2023-04-06T05:58:00.291Z,98427.78
2023-04-06T06:01:03.928Z,98424.38
2023-04-06T06:04:06.651Z,98429.09
2023-04-06T06:07:09.444Z,98427.09
2023-04-06T06:10:12.828Z,98427.34
2023-04-06T06:13:16.933Z,98433.03
2023-04-06T06:16:20.335Z,98434.44
2023-04-06T06:19:23.100Z,98435.00
2023-04-06T06:22:25.870Z,98428.31
2023-04-06T06:25:28.615Z,98428.78
2023-04-06T06:28:32.725Z,98434.72
2023-04-06T06:31:36.242Z,98429.66
2023-04-06T06:34:39.079Z,98440.44
2023-04-06T06:37:41.882Z,98428.28
2023-04-06T06:40:44.593Z,98427.31
2023-04-06T06:43:48.680Z,98428.63
2023-04-06T06:46:51.392Z,98428.44
2023-04-06T06:49:54.122Z,98427.53
2023-04-06T06:52:56.849Z,98430.66
2023-04-06T06:55:59.798Z,98430.84
2023-04-06T06:59:04.019Z,98425.72
2023-04-06T07:02:06.714Z,98429.38
2023-04-06T07:05:19.906Z,98424.47
2023-04-06T07:08:26.958Z,98424.31
2023-04-06T07:11:29.766Z,98425.41
2023-04-06T07:14:34.152Z,98419.84
2023-04-06T07:17:36.997Z,98415.41
2023-04-06T07:20:39.840Z,98420.38
2023-04-06T07:23:42.518Z,98428.84
2023-04-06T07:26:45.304Z,98424.06
2023-04-06T07:29:49.431Z,98428.34
2023-04-06T07:32:52.265Z,98433.69
2023-04-06T07:35:55.548Z,98427.22
2023-04-06T07:38:58.332Z,98423.72
2023-04-06T07:42:01.139Z,98431.38
2023-04-06T07:45:06.137Z,98430.31
2023-04-06T07:48:08.850Z,98427.91
2023-04-06T07:51:15.093Z,98430.59
2023-04-06T07:54:17.892Z,98428.47
2023-04-06T07:57:21.025Z,98426.28
2023-04-06T08:00:25.457Z,98423.34
2023-04-06T08:03:28.419Z,98426.56
2023-04-06T08:06:31.379Z,98425.25
2023-04-06T08:09:34.437Z,98422.66
2023-04-06T08:12:37.294Z,98424.28
2023-04-06T08:15:41.479Z,98420.84
2023-04-06T08:18:44.255Z,98415.72
2023-04-06T08:21:47.173Z,98422.72
2023-04-06T08:24:49.909Z,98430.25
2023-04-06T08:27:52.640Z,98426.72
2023-04-06T08:30:56.785Z,98419.47
2023-04-06T08:33:59.579Z,98423.97
2023-04-06T08:37:02.408Z,98414.75
2023-04-06T08:40:05.992Z,98417.69
2023-04-06T08:43:12.605Z,98412.88
2023-04-06T08:46:17.364Z,98419.00
2023-04-06T08:49:20.544Z,98414.44
2023-04-06T08:52:23.327Z,98412.19
2023-04-06T08:55:26.784Z,98421.84
2023-04-06T08:58:38.163Z,98405.63
2023-04-06T09:01:44.702Z,98406.13
2023-04-06T09:04:49.702Z,98409.00
2023-04-06T09:07:52.509Z,98403.09
2023-04-06T09:10:55.206Z,98404.25
2023-04-06T09:13:58.288Z,98400.03
2023-04-06T09:17:02.394Z,98401.16
2023-04-06T09:20:06.162Z,98396.75
2023-04-06T09:23:19.211Z,98399.13
2023-04-06T09:26:22.366Z,98399.06
2023-04-06T09:29:28.302Z,98395.00
2023-04-06T09:32:32.469Z,98396.06
2023-04-06T09:35:35.310Z,98398.31
2023-04-06T09:38:39.683Z,98399.56
2023-04-06T09:41:42.459Z,98391.34
2023-04-06T09:44:45.412Z,98385.44
2023-04-06T09:47:51.081Z,98380.09
2023-04-06T09:51:01.086Z,98382.69
2023-04-06T09:54:05.716Z,98376.56
2023-04-06T09:57:16.536Z,98373.91
2023-04-06T10:00:24.360Z,98380.69
2023-04-06T10:03:39.873Z,98373.34
2023-04-06T10:06:42.990Z,98373.56
2023-04-06T10:09:47.794Z,98377.06
2023-04-06T10:12:50.858Z,98369.09
2023-04-06T10:15:54.160Z,98365.22
2023-04-06T10:19:04.151Z,98365.72
2023-04-06T10:22:09.610Z,98364.31
2023-04-06T10:25:12.367Z,98363.13
2023-04-06T10:28:15.476Z,98360.03
2023-04-06T10:31:26.509Z,98361.31
2023-04-06T10:34:38.017Z,98364.72
2023-04-06T10:37:52.748Z,98362.50
2023-04-06T10:41:06.073Z,98362.66
2023-04-06T10:44:09.143Z,98352.06
2023-04-06T10:47:19.235Z,98352.00
2023-04-06T10:50:24.340Z,98344.25
2023-04-06T10:53:28.751Z,98336.53
2023-04-06T10:56:32.869Z,98339.91
2023-04-06T10:59:35.793Z,98342.22
2023-04-06T11:02:38.948Z,98352.03
2023-04-06T11:05:48.102Z,98347.81
2023-04-06T11:08:51.416Z,98349.56
2023-04-06T11:11:54.594Z,98352.69
2023-04-06T11:15:03.111Z,98344.50
2023-04-06T11:18:06.285Z,98344.56
2023-04-06T11:21:10.556Z,98336.13
2023-04-06T11:24:15.778Z,98324.34
2023-04-06T11:27:19.297Z,98326.56
2023-04-06T11:30:22.524Z,98320.97
2023-04-06T11:33:25.561Z,98314.81
2023-04-06T11:36:31.850Z,98318.28
2023-04-06T11:39:42.420Z,98309.31
2023-04-06T11:42:54.856Z,98307.00
2023-04-06T11:46:04.396Z,98306.56
2023-04-06T11:49:07.750Z,98305.59
2023-04-06T11:52:19.369Z,98303.88
2023-04-06T11:55:22.213Z,98294.84
2023-04-06T11:58:25.212Z,98292.34
2023-04-06T12:01:28.717Z,98291.72
2023-04-06T12:04:31.606Z,98289.06
2023-04-06T12:07:36.275Z,98287.94
2023-04-06T12:10:39.196Z,98289.13
2023-04-06T12:13:42.204Z,98283.34
2023-04-06T12:16:45.015Z,98276.91
2023-04-06T12:19:47.828Z,98278.06
2023-04-06T12:22:52.030Z,98275.09
2023-04-06T12:25:55.731Z,98274.41
2023-04-06T12:29:00.330Z,98267.25
2023-04-06T12:32:03.468Z,98267.03
2023-04-06T12:35:06.616Z,98265.88
2023-04-06T12:38:11.231Z,98260.06
2023-04-06T12:41:14.050Z,98263.00
2023-04-06T12:44:16.940Z,98259.25
2023-04-06T12:47:20.131Z,98255.69
2023-04-06T12:50:22.981Z,98242.16
2023-04-06T12:53:27.528Z,98247.13
2023-04-06T12:56:30.790Z,98245.28
2023-04-06T12:59:36.349Z,98249.00
2023-04-06T13:02:39.566Z,98243.13
2023-04-06T13:05:46.262Z,98246.72
2023-04-06T13:08:51.217Z,98239.41
2023-04-06T13:11:54.347Z,98239.56
2023-04-06T13:14:57.579Z,98241.75
2023-04-06T13:18:00.704Z,98237.53
2023-04-06T13:21:04.006Z,98238.38
2023-04-06T13:24:08.558Z,98233.00
2023-04-06T13:27:12.423Z,98232.88
2023-04-06T13:30:16.513Z,98232.38
2023-04-06T13:33:21.155Z,98221.44
2023-04-06T13:36:24.069Z,98221.03
2023-04-06T13:39:28.365Z,98212.91
2023-04-06T13:42:31.263Z,98204.06
2023-04-06T13:45:35.110Z,98210.91
2023-04-06T13:48:37.876Z,98202.13
2023-04-06T13:51:40.853Z,98210.75
2023-04-06T13:54:44.917Z,98203.41
2023-04-06T13:57:47.672Z,98196.56
2023-04-06T14:00:50.838Z,98192.88
2023-04-06T14:03:53.863Z,98195.59
2023-04-06T14:06:57.272Z,98201.13
2023-04-06T14:10:01.889Z,98195.59
2023-04-06T14:13:05.133Z,98197.03
2023-04-06T14:16:08.704Z,98191.75
2023-04-06T14:19:12.320Z,98192.25
2023-04-06T14:22:15.415Z,98193.03
2023-04-06T14:25:19.516Z,98196.84
2023-04-06T14:28:23.104Z,98194.50
2023-04-06T14:31:25.851Z,98185.34
2023-04-06T14:34:29.337Z,98191.19
2023-04-06T14:37:32.121Z,98193.72
2023-04-06T14:40:38.555Z,98199.34
2023-04-06T14:43:41.271Z,98192.50
2023-04-06T14:46:44.041Z,98187.88
2023-04-06T14:49:46.716Z,98192.00
2023-04-06T14:52:49.771Z,98186.59
2023-04-06T14:55:53.907Z,98186.28
2023-04-06T14:58:59.763Z,98180.97
2023-04-06T15:02:04.042Z,98183.94
2023-04-06T15:05:07.900Z,98180.56
2023-04-06T15:08:12.508Z,98190.66
2023-04-06T15:11:16.677Z,98185.88
2023-04-06T15:14:19.395Z,98190.00
2023-04-06T15:17:22.158Z,98183.91
2023-04-06T15:20:25.176Z,98186.75
2023-04-06T15:23:30.484Z,98182.91
2023-04-06T15:26:34.561Z,98178.03
2023-04-06T15:29:37.243Z,98189.88
2023-04-06T15:32:40.011Z,98186.31
2023-04-06T15:35:43.594Z,98188.44
2023-04-06T15:38:46.588Z,98182.41
2023-04-06T15:41:50.605Z,98189.13
2023-04-06T15:44:53.325Z,98185.94
2023-04-06T15:47:56.040Z,98184.22
2023-04-06T15:50:59.043Z,98194.53
2023-04-06T15:54:01.805Z,98186.94
2023-04-06T15:57:05.858Z,98192.56
2023-04-06T16:00:10.333Z,98186.97
2023-04-06T16:03:13.195Z,98186.91
2023-04-06T16:06:16.275Z,98188.59
2023-04-06T16:09:18.932Z,98195.09
2023-04-06T16:12:23.983Z,98195.00
2023-04-06T16:15:26.775Z,98198.28
2023-04-06T16:18:29.601Z,98201.78
2023-04-06T16:21:32.224Z,98190.81
2023-04-06T16:24:35.045Z,98196.47
2023-04-06T16:27:39.365Z,98197.34
2023-04-06T16:30:43.654Z,98196.25
2023-04-06T16:33:49.390Z,98197.09
2023-04-06T16:36:52.773Z,98203.72
2023-04-06T16:39:55.501Z,98203.72
2023-04-06T16:42:59.545Z,98202.00
2023-04-06T16:46:02.332Z,98202.06
2023-04-06T16:49:06.935Z,98206.00
2023-04-06T16:52:09.824Z,98201.56
2023-04-06T16:55:12.690Z,98202.44
2023-04-06T16:58:16.784Z,98210.00
2023-04-06T17:01:20.690Z,98202.00
2023-04-06T17:04:23.760Z,98207.16
2023-04-06T17:07:31.366Z,98202.34
2023-04-06T17:10:41.554Z,98202.72
2023-04-06T17:13:56.032Z,98210.66
2023-04-06T17:16:58.808Z,98209.63
2023-04-06T17:20:01.639Z,98213.13
2023-04-06T17:23:04.556Z,98214.56
2023-04-06T17:26:08.302Z,98214.84
2023-04-06T17:29:12.566Z,98217.31
2023-04-06T17:32:15.932Z,98223.03
2023-04-06T17:35:18.804Z,98222.34
2023-04-06T17:38:23.078Z,98229.38
2023-04-06T17:41:26.591Z,98224.59
2023-04-06T17:44:30.641Z,98222.69
2023-04-06T17:47:33.367Z,98229.72
2023-04-06T17:50:38.903Z,98235.69
2023-04-06T17:53:42.635Z,98244.09
2023-04-06T17:56:49.118Z,98246.78
2023-04-06T17:59:54.249Z,98248.13
2023-04-06T18:02:57.553Z,98244.38
2023-04-06T18:06:10.300Z,98253.38
2023-04-06T18:09:13.312Z,98266.88
2023-04-06T18:12:16.131Z,98262.34
2023-04-06T18:15:20.220Z,98260.19
2023-04-06T18:18:23.089Z,98254.56
2023-04-06T18:21:27.292Z,98274.75
2023-04-06T18:24:41.310Z,98265.94
2023-04-06T18:27:45.422Z,98261.91
2023-04-06T18:30:49.459Z,98269.81
2023-04-06T18:33:53.872Z,98271.19
2023-04-06T18:36:57.529Z,98273.41
2023-04-06T18:40:00.295Z,98273.47
2023-04-06T18:43:04.262Z,98268.97
2023-04-06T18:46:13.361Z,98273.13
2023-04-06T18:49:16.017Z,98275.56
2023-04-06T18:52:18.647Z,98275.91
2023-04-06T18:55:21.244Z,98272.69
2023-04-06T18:58:24.991Z,98278.34
2023-04-06T19:01:30.798Z,98282.09
2023-04-06T19:04:33.684Z,98291.22
2023-04-06T19:07:37.656Z,98286.44
2023-04-06T19:10:40.758Z,98292.38
2023-04-06T19:13:46.746Z,98299.91
2023-04-06T19:16:53.042Z,98311.50
2023-04-06T19:19:57.824Z,98298.00
2023-04-06T19:23:00.875Z,98312.75
2023-04-06T19:26:03.740Z,98304.94
2023-04-06T19:29:06.412Z,98293.91
2023-04-06T19:32:11.749Z,98304.06
2023-04-06T19:35:14.587Z,98312.38
2023-04-06T19:38:17.286Z,98303.44
2023-04-06T19:41:20.025Z,98299.41
2023-04-06T19:44:22.836Z,98302.63
2023-04-06T19:47:27.400Z,98307.19
2023-04-06T19:50:30.241Z,98302.44
2023-04-06T19:53:32.873Z,98308.88
2023-04-06T19:56:35.721Z,98310.22
2023-04-06T19:59:38.887Z,98307.81
2023-04-06T20:02:43.138Z,98311.84
2023-04-06T20:05:46.656Z,98306.53
2023-04-06T20:08:49.330Z,98313.47
2023-04-06T20:11:53.981Z,98313.22
2023-04-06T20:14:56.912Z,98309.16
2023-04-06T20:18:01.333Z,98297.13
2023-04-06T20:21:04.030Z,98300.31
2023-04-06T20:24:07.009Z,98305.94
2023-04-06T20:27:09.742Z,98303.19
2023-04-06T20:30:14.623Z,98309.69
2023-04-06T20:33:18.727Z,98308.63
2023-04-06T20:36:22.321Z,98310.56
2023-04-06T20:39:27.259Z,98311.91
2023-04-06T20:42:30.091Z,98312.19
2023-04-06T20:45:38.266Z,98312.66
2023-04-06T20:48:42.367Z,98316.44
2023-04-06T20:51:45.627Z,98316.16
2023-04-06T20:54:48.491Z,98311.59
2023-04-06T20:57:51.275Z,98312.19
2023-04-06T21:00:54.410Z,98328.56
2023-04-06T21:03:58.592Z,98324.53
2023-04-06T21:07:04.530Z,98328.03
2023-04-06T21:10:08.486Z,98322.72
2023-04-06T21:13:11.604Z,98318.91
2023-04-06T21:16:14.486Z,98323.81
2023-04-06T21:19:18.641Z,98327.59
2023-04-06T21:22:21.348Z,98325.22
2023-04-06T21:25:24.073Z,98322.31
2023-04-06T21:28:27.455Z,98331.47
2023-04-06T21:31:30.284Z,98327.44
2023-04-06T21:34:34.530Z,98328.00
2023-04-06T21:37:37.270Z,98317.06
2023-04-06T21:40:40.070Z,98322.72
2023-04-06T21:43:42.851Z,98315.47
2023-04-06T21:46:45.628Z,98317.63
2023-04-06T21:49:49.880Z,98318.44
2023-04-06T21:52:52.566Z,98324.03
2023-04-06T21:55:55.492Z,98318.13
2023-04-06T21:58:58.343Z,98319.16
2023-04-06T22:02:01.085Z,98313.00
2023-04-06T22:05:06.075Z,98310.81
2023-04-06T22:08:15.167Z,98315.88
2023-04-06T22:11:21.140Z,98308.38
2023-04-06T22:14:23.938Z,98310.53
2023-04-06T22:17:27.370Z,98308.13
2023-04-06T22:20:31.806Z,98310.56
2023-04-06T22:23:34.733Z,98307.06
2023-04-06T22:26:37.676Z,98303.34
2023-04-06T22:29:40.455Z,98301.75
2023-04-06T22:32:43.246Z,98300.94
2023-04-06T22:35:47.303Z,98298.53
2023-04-06T22:38:50.858Z,98294.50
2023-04-06T22:41:53.486Z,98299.03
2023-04-06T22:44:56.094Z,98292.59
2023-04-06T22:47:58.823Z,98291.22
2023-04-06T22:51:02.884Z,98292.84
2023-04-06T22:54:05.599Z,98292.84
2023-04-06T22:57:08.230Z,98292.00
2023-04-06T23:00:12.028Z,98282.94
2023-04-06T23:03:14.800Z,98282.06
2023-04-06T23:06:18.952Z,98267.06
2023-04-06T23:09:21.667Z,98263.84
2023-04-06T23:12:24.584Z,98264.94
2023-04-06T23:15:27.190Z,98256.38
2023-04-06T23:18:29.804Z,98255.84
2023-04-06T23:21:33.783Z,98240.06
2023-04-06T23:24:36.477Z,98239.50
2023-04-06T23:27:39.088Z,98244.31
2023-04-06T23:30:41.742Z,98248.03
2023-04-06T23:33:44.391Z,98247.53
2023-04-06T23:36:48.357Z,98236.78
2023-04-06T23:39:50.982Z,98234.91
2023-04-06T23:42:53.596Z,98232.78
2023-04-06T23:45:56.710Z,98228.00
2023-04-06T23:48:59.472Z,98222.94
2023-04-06T23:52:03.488Z,98221.84
2023-04-06T23:55:07.193Z,98216.75
2023-04-06T23:58:09.828Z,98219.97
